Time;durP1;ratioP1;P1;durP2;ratioP2;P2;SDS_P1;SDS_P2;PMS_P1;PMS_P2;Temp;Humidity;BMP_temperature;BMP_pressure;BME280_temperature;BME280_humidity;BME280_pressure;Samples;Min_cycle;Max_cycle;Signal;HPM_P1;HPM_P2
2022/07/18 00:01:51;;;;;;;;;;;19.90;43.40;;;;;;5143202;27;19978;-47
2022/07/18 00:04:17;;;;;;;;;;;19.80;43.70;;;;;;5108903;27;19928;-58
2022/07/18 00:06:43;;;;;;;;;;;19.80;43.60;;;;;;5142298;27;19927;-48
2022/07/18 00:09:08;;;;;;;;;;;20.80;42.40;;;;;;5142841;27;19934;-49
2022/07/18 00:11:34;;;;;;;;;;;21.80;40.30;;;;;;5147222;27;19976;-52
2022/07/18 00:14:00;;;;;;;;;;;20.90;41.80;;;;;;5141559;27;20006;-47
2022/07/18 00:16:26;;;;;;;;;;;20.30;43.10;;;;;;5140254;27;19925;-49
2022/07/18 00:18:52;;;;;;;;;;;20.00;43.30;;;;;;5146734;27;20357;-47
2022/07/18 00:21:18;;;;;;;;;;;20.20;43.10;;;;;;5121595;27;20018;-50
2022/07/18 00:23:43;;;;;;;;;;;20.00;43.40;;;;;;5122209;27;19923;-51
2022/07/18 00:26:09;;;;;;;;;;;19.80;43.60;;;;;;5145925;27;19934;-49
2022/07/18 00:28:35;;;;;;;;;;;20.00;43.50;;;;;;5141333;27;19923;-50
2022/07/18 00:31:01;;;;;;;;;;;19.80;43.80;;;;;;5146837;27;19934;-47
2022/07/18 00:33:26;;;;;;;;;;;20.00;43.30;;;;;;5141335;27;20433;-48
2022/07/18 00:35:52;;;;;;;;;;;19.90;43.60;;;;;;5140587;27;19923;-48
2022/07/18 00:38:18;;;;;;;;;;;19.80;43.60;;;;;;5146678;27;19927;-48
2022/07/18 00:40:44;;;;;;;;;;;20.10;43.40;;;;;;5142696;27;19931;-48
2022/07/18 00:43:13;;;;;;;;;;;21.30;41.50;;;;;;5139499;27;19927;-56
2022/07/18 00:45:39;;;;;;;;;;;21.70;40.40;;;;;;5127803;27;20263;-50
2022/07/18 00:48:07;;;;;;;;;;;20.30;42.90;;;;;;5140907;27;19923;-47
2022/07/18 00:50:33;;;;;;;;;;;20.10;43.30;;;;;;5128319;27;19930;-49
2022/07/18 00:52:59;;;;;;;;;;;19.90;43.40;;;;;;5140865;27;20290;-49
2022/07/18 00:55:25;;;;;;;;;;;20.00;43.30;;;;;;5140648;27;19976;-51
2022/07/18 00:57:50;;;;;;;;;;;19.70;43.60;;;;;;5146495;27;20022;-49
2022/07/18 01:03:01;;;;;;;;;;;21.80;40.40;;;;;;5140325;27;19926;-49
2022/07/18 01:05:26;;;;;;;;;;;20.80;42.10;;;;;;5128009;27;20328;-48
2022/07/18 01:07:52;;;;;;;;;;;20.10;43.20;;;;;;5140919;27;20361;-48
2022/07/18 01:10:18;;;;;;;;;;;20.00;43.30;;;;;;5122481;27;20555;-47
2022/07/18 01:12:44;;;;;;;;;;;19.80;43.50;;;;;;5145813;27;19929;-48
2022/07/18 01:15:10;;;;;;;;;;;19.80;43.40;;;;;;5140808;27;20293;-47
2022/07/18 01:17:36;;;;;;;;;;;19.80;43.80;;;;;;5146171;27;19934;-49
2022/07/18 01:20:02;;;;;;;;;;;20.90;41.80;;;;;;5139004;27;20342;-51
2022/07/18 01:22:28;;;;;;;;;;;21.80;39.80;;;;;;5140328;27;19933;-48
2022/07/18 01:24:54;;;;;;;;;;;20.70;41.90;;;;;;5146094;27;19929;-48
2022/07/18 01:27:20;;;;;;;;;;;20.20;42.60;;;;;;5141248;27;19927;-49
2022/07/18 01:29:46;;;;;;;;;;;20.00;43.00;;;;;;5124976;27;20580;-47
2022/07/18 01:32:12;;;;;;;;;;;19.80;43.10;;;;;;5149408;27;20462;-47
2022/07/18 01:34:38;;;;;;;;;;;20.00;42.80;;;;;;5144066;27;19923;-48
2022/07/18 01:37:04;;;;;;;;;;;21.10;41.00;;;;;;5147687;27;19985;-56
2022/07/18 01:39:30;;;;;;;;;;;21.50;39.50;;;;;;5144292;27;19970;-50
2022/07/18 01:41:56;;;;;;;;;;;20.50;41.50;;;;;;5143710;27;20267;-51
2022/07/18 01:44:22;;;;;;;;;;;20.20;41.90;;;;;;5149465;27;20305;-50
2022/07/18 01:46:48;;;;;;;;;;;19.70;42.70;;;;;;5144049;27;19931;-48
2022/07/18 01:49:14;;;;;;;;;;;19.90;42.40;;;;;;5125062;27;20294;-50
2022/07/18 01:51:39;;;;;;;;;;;20.20;42.00;;;;;;5149461;27;20000;-48
2022/07/18 01:54:05;;;;;;;;;;;21.30;40.00;;;;;;5143993;27;19966;-53
2022/07/18 01:56:31;;;;;;;;;;;21.50;39.40;;;;;;5144554;27;20342;-54
2022/07/18 01:58:57;;;;;;;;;;;20.50;41.50;;;;;;5146910;27;20428;-48
2022/07/18 02:01:23;;;;;;;;;;;20.00;42.20;;;;;;5143450;27;20429;-47
2022/07/18 02:03:48;;;;;;;;;;;19.80;42.60;;;;;;5149014;27;19991;-48
2022/07/18 02:06:14;;;;;;;;;;;19.70;42.60;;;;;;5123639;27;19923;-47
2022/07/18 02:08:40;;;;;;;;;;;19.80;42.80;;;;;;5143174;27;19923;-46
2022/07/18 02:11:06;;;;;;;;;;;21.00;40.80;;;;;;5148976;27;19931;-52
2022/07/18 02:13:31;;;;;;;;;;;21.60;39.30;;;;;;5123908;27;19927;-49
2022/07/18 02:15:57;;;;;;;;;;;20.70;41.20;;;;;;5142710;27;19976;-53
2022/07/18 02:18:23;;;;;;;;;;;20.20;42.10;;;;;;5148540;27;19923;-48
2022/07/18 02:20:49;;;;;;;;;;;20.00;42.20;;;;;;5143457;27;19934;-47
2022/07/18 02:23:14;;;;;;;;;;;19.70;42.80;;;;;;5148879;27;19927;-48
2022/07/18 02:25:40;;;;;;;;;;;20.60;41.80;;;;;;5142764;27;19978;-48
2022/07/18 02:28:06;;;;;;;;;;;21.60;39.50;;;;;;5142980;27;19930;-50
2022/07/18 02:30:32;;;;;;;;;;;20.60;41.10;;;;;;5148831;27;19934;-51
2022/07/18 02:32:58;;;;;;;;;;;20.30;41.50;;;;;;5141873;27;20393;-48
2022/07/18 02:35:23;;;;;;;;;;;19.90;42.00;;;;;;5142664;27;19946;-48
2022/07/18 02:37:49;;;;;;;;;;;19.80;42.20;;;;;;5148590;27;19976;-47
2022/07/18 02:40:15;;;;;;;;;;;20.70;41.00;;;;;;5142026;27;19927;-46
2022/07/18 02:42:41;;;;;;;;;;;21.70;38.70;;;;;;5148575;27;20392;-47
2022/07/18 02:45:07;;;;;;;;;;;20.70;40.40;;;;;;5123929;27;19975;-46
2022/07/18 02:47:33;;;;;;;;;;;20.20;41.30;;;;;;5142894;27;20334;-45
2022/07/18 02:49:58;;;;;;;;;;;20.00;41.40;;;;;;5129322;27;19923;-46
2022/07/18 02:52:24;;;;;;;;;;;19.70;42.00;;;;;;5141948;27;20345;-46
2022/07/18 02:54:50;;;;;;;;;;;20.50;40.80;;;;;;5142577;27;20273;-49
2022/07/18 02:57:16;;;;;;;;;;;21.60;38.60;;;;;;5148277;27;19924;-48
2022/07/18 02:59:41;;;;;;;;;;;20.70;40.20;;;;;;5142811;27;20324;-47
2022/07/18 03:02:07;;;;;;;;;;;20.10;41.30;;;;;;5148151;27;19927;-46
2022/07/18 03:04:33;;;;;;;;;;;20.00;41.50;;;;;;5142813;27;20616;-46
2022/07/18 03:06:59;;;;;;;;;;;19.90;41.50;;;;;;5142679;27;19978;-49
2022/07/18 03:09:27;;;;;;;;;;;20.20;41.40;;;;;;5128238;27;20282;-48
2022/07/18 03:11:54;;;;;;;;;;;21.30;39.00;;;;;;5123806;27;19927;-49
2022/07/18 03:14:20;;;;;;;;;;;20.90;39.60;;;;;;5142234;27;20029;-47
2022/07/18 03:16:46;;;;;;;;;;;20.40;40.70;;;;;;5148086;27;19933;-47
2022/07/18 03:19:12;;;;;;;;;;;19.80;41.60;;;;;;5142601;27;19931;-45
2022/07/18 03:21:37;;;;;;;;;;;19.90;41.70;;;;;;5145712;27;20289;-53
2022/07/18 03:24:03;;;;;;;;;;;21.00;39.60;;;;;;5144540;27;19981;-48
2022/07/18 03:26:29;;;;;;;;;;;21.40;38.60;;;;;;5142244;27;19930;-50
2022/07/18 03:28:55;;;;;;;;;;;20.30;40.90;;;;;;5146416;27;19923;-45
2022/07/18 03:31:21;;;;;;;;;;;20.00;41.20;;;;;;5141916;27;19930;-46
2022/07/18 03:33:46;;;;;;;;;;;20.00;41.50;;;;;;5141942;27;19983;-47
2022/07/18 03:36:12;;;;;;;;;;;19.60;42.00;;;;;;5147865;27;20358;-47
2022/07/18 03:38:42;;;;;;;;;;;20.20;41.40;;;;;;5142325;27;19931;-50
2022/07/18 03:41:11;;;;;;;;;;;21.40;39.00;;;;;;5142310;27;19931;-53
2022/07/18 03:43:37;;;;;;;;;;;20.90;39.70;;;;;;5147897;27;19975;-47
2022/07/18 03:46:03;;;;;;;;;;;20.20;41.10;;;;;;5141093;27;19970;-48
2022/07/18 03:48:29;;;;;;;;;;;19.80;41.80;;;;;;5146565;27;20385;-48
2022/07/18 03:50:54;;;;;;;;;;;19.80;41.80;;;;;;5141570;27;19927;-50
2022/07/18 03:53:20;;;;;;;;;;;20.30;41.30;;;;;;5141902;27;20015;-47
2022/07/18 03:55:46;;;;;;;;;;;21.40;39.00;;;;;;5147332;27;19950;-47
2022/07/18 03:58:12;;;;;;;;;;;20.80;39.70;;;;;;5141287;27;20358;-46
2022/07/18 04:00:38;;;;;;;;;;;20.00;41.30;;;;;;5141762;27;20076;-46
2022/07/18 04:03:03;;;;;;;;;;;19.70;42.00;;;;;;5146924;27;20392;-48
2022/07/18 04:05:29;;;;;;;;;;;19.60;42.10;;;;;;5140001;27;19927;-45
2022/07/18 04:07:55;;;;;;;;;;;19.90;41.80;;;;;;5146842;27;19926;-46
2022/07/18 04:10:21;;;;;;;;;;;21.10;39.70;;;;;;5141596;27;19976;-50
2022/07/18 04:12:54;;;;;;;;;;;21.50;38.60;;;;;;5141596;27;19934;-47
2022/07/18 04:15:20;;;;;;;;;;;20.50;40.80;;;;;;5128192;27;19937;-52
2022/07/18 04:17:46;;;;;;;;;;;20.00;41.70;;;;;;5141460;27;19946;-46
2022/07/18 04:20:12;;;;;;;;;;;19.80;42.20;;;;;;5141712;27;19923;-47
2022/07/18 04:22:44;;;;;;;;;;;19.80;42.00;;;;;;5145843;27;19949;-48
2022/07/18 04:25:10;;;;;;;;;;;20.40;41.30;;;;;;5140580;27;20014;-47
2022/07/18 04:27:36;;;;;;;;;;;21.60;39.10;;;;;;5141158;27;19927;-50
2022/07/18 04:30:02;;;;;;;;;;;20.40;41.40;;;;;;5146801;27;20010;-46
2022/07/18 04:32:28;;;;;;;;;;;20.10;42.00;;;;;;5141524;27;19930;-47
2022/07/18 04:34:54;;;;;;;;;;;20.00;42.20;;;;;;5146361;27;19969;-46
2022/07/18 04:37:19;;;;;;;;;;;19.70;43.00;;;;;;5141225;27;19941;-46
2022/07/18 04:39:45;;;;;;;;;;;20.70;41.70;;;;;;5141023;27;19923;-50
2022/07/18 04:42:11;;;;;;;;;;;21.60;39.70;;;;;;5126554;27;20391;-48
2022/07/18 04:44:37;;;;;;;;;;;20.50;42.10;;;;;;5140821;27;20302;-47
2022/07/18 04:47:02;;;;;;;;;;;20.00;43.10;;;;;;5141096;27;19927;-46
2022/07/18 04:49:28;;;;;;;;;;;19.80;43.10;;;;;;5128035;27;19923;-46
2022/07/18 04:51:54;;;;;;;;;;;19.90;43.00;;;;;;5140958;27;19927;-48
2022/07/18 04:54:20;;;;;;;;;;;20.80;42.10;;;;;;5146108;27;19930;-54
2022/07/18 04:56:46;;;;;;;;;;;21.70;39.90;;;;;;5141309;27;19927;-48
2022/07/18 04:59:11;;;;;;;;;;;20.40;42.20;;;;;;5140205;27;20371;-48
2022/07/18 05:01:37;;;;;;;;;;;20.00;42.70;;;;;;5145295;27;19927;-48
2022/07/18 05:04:03;;;;;;;;;;;19.80;42.90;;;;;;5140374;27;19927;-48
2022/07/18 05:06:29;;;;;;;;;;;19.70;42.90;;;;;;5140881;27;19958;-48
2022/07/18 05:08:55;;;;;;;;;;;20.30;42.60;;;;;;5146386;27;19935;-50
2022/07/18 05:11:20;;;;;;;;;;;21.40;40.40;;;;;;5140504;27;19923;-48
2022/07/18 05:13:46;;;;;;;;;;;21.10;40.70;;;;;;5146226;27;19924;-49
2022/07/18 05:16:12;;;;;;;;;;;20.10;43.00;;;;;;5140683;27;19923;-47
2022/07/18 05:18:38;;;;;;;;;;;20.00;42.80;;;;;;5139364;27;19970;-47
2022/07/18 05:21:04;;;;;;;;;;;19.90;43.20;;;;;;5145557;27;20295;-47
2022/07/18 05:23:29;;;;;;;;;;;19.80;43.10;;;;;;5140301;27;19927;-48
2022/07/18 05:25:55;;;;;;;;;;;20.40;42.70;;;;;;5140768;27;20090;-49
2022/07/18 05:28:21;;;;;;;;;;;21.50;40.50;;;;;;5145947;27;19927;-50
2022/07/18 05:30:47;;;;;;;;;;;20.80;41.60;;;;;;5139988;27;19923;-46
2022/07/18 05:33:12;;;;;;;;;;;20.40;42.50;;;;;;5144618;27;19949;-53
2022/07/18 05:35:38;;;;;;;;;;;20.00;43.40;;;;;;5140840;27;19933;-46
2022/07/18 05:38:04;;;;;;;;;;;19.90;43.40;;;;;;5139421;27;19958;-46
2022/07/18 05:40:30;;;;;;;;;;;19.90;43.40;;;;;;5145611;27;19939;-46
2022/07/18 05:42:56;;;;;;;;;;;20.00;43.20;;;;;;5140417;27;19934;-46
2022/07/18 05:45:24;;;;;;;;;;;19.90;43.60;;;;;;5140548;27;20305;-47
2022/07/18 05:47:50;;;;;;;;;;;20.80;42.80;;;;;;5145543;27;19991;-47
2022/07/18 05:50:16;;;;;;;;;;;21.80;41.00;;;;;;5119814;27;20018;-47
2022/07/18 05:52:42;;;;;;;;;;;20.50;43.20;;;;;;5141166;27;19937;-52
2022/07/18 05:55:08;;;;;;;;;;;20.10;44.60;;;;;;5143455;27;20271;-45
2022/07/18 05:57:34;;;;;;;;;;;20.10;44.50;;;;;;5139790;27;20010;-45
2022/07/18 06:00:00;;;;;;;;;;;20.00;44.60;;;;;;5127192;27;19929;-45
2022/07/18 06:02:26;;;;;;;;;;;19.90;45.00;;;;;;5140143;27;19923;-47
2022/07/18 06:04:52;;;;;;;;;;;20.60;44.70;;;;;;5139976;27;19927;-47
2022/07/18 06:07:17;;;;;;;;;;;21.60;42.60;;;;;;5145109;27;20088;-47
2022/07/18 06:09:43;;;;;;;;;;;20.90;43.70;;;;;;5140134;27;19931;-45
2022/07/18 06:12:08;;;;;;;;;;;20.30;45.00;;;;;;5139303;27;19923;-45
2022/07/18 06:14:34;;;;;;;;;;;20.10;45.40;;;;;;5124840;27;19924;-47
2022/07/18 06:17:00;;;;;;;;;;;20.10;45.10;;;;;;5143161;27;20362;-46
2022/07/18 06:19:26;;;;;;;;;;;19.80;45.70;;;;;;5148948;27;19950;-44
2022/07/18 06:21:52;;;;;;;;;;;19.80;45.70;;;;;;5143284;27;20013;-44
2022/07/18 06:24:18;;;;;;;;;;;20.00;45.60;;;;;;5142903;27;19923;-45
2022/07/18 06:26:43;;;;;;;;;;;19.80;46.00;;;;;;5130096;27;19923;-45
2022/07/18 06:29:10;;;;;;;;;;;20.80;45.60;;;;;;5143356;27;19927;-44
2022/07/18 06:31:36;;;;;;;;;;;21.80;44.10;;;;;;5142273;27;20244;-48
2022/07/18 06:34:02;;;;;;;;;;;20.80;46.00;;;;;;5147806;27;20475;-44
2022/07/18 06:36:28;;;;;;;;;;;20.10;47.20;;;;;;5143051;27;20060;-45
2022/07/18 06:38:53;;;;;;;;;;;20.00;46.80;;;;;;5148725;27;20453;-45
2022/07/18 06:41:19;;;;;;;;;;;19.90;46.90;;;;;;5143157;27;19930;-45
2022/07/18 06:43:45;;;;;;;;;;;19.90;46.80;;;;;;5142620;27;20297;-46
2022/07/18 06:46:11;;;;;;;;;;;19.90;46.70;;;;;;5130084;27;19929;-44
2022/07/18 06:48:37;;;;;;;;;;;19.80;46.90;;;;;;5138396;27;19923;-48
2022/07/18 06:51:04;;;;;;;;;;;20.50;47.40;;;;;;5141667;27;19954;-45
2022/07/18 06:53:30;;;;;;;;;;;21.50;45.80;;;;;;5148165;27;19930;-44
2022/07/18 06:55:56;;;;;;;;;;;21.10;45.90;;;;;;5122761;27;19923;-43
2022/07/18 06:58:21;;;;;;;;;;;20.20;47.60;;;;;;5147633;27;19923;-55
2022/07/18 07:00:47;;;;;;;;;;;20.20;47.20;;;;;;5143904;27;20238;-44
2022/07/18 07:03:13;;;;;;;;;;;20.00;47.50;;;;;;5142444;27;19923;-45
2022/07/18 07:05:39;;;;;;;;;;;19.90;47.60;;;;;;5148122;27;19930;-44
2022/07/18 07:08:05;;;;;;;;;;;19.80;47.20;;;;;;5141275;27;19923;-43
2022/07/18 07:10:31;;;;;;;;;;;20.00;47.10;;;;;;5141873;27;20340;-42
2022/07/18 07:12:56;;;;;;;;;;;20.00;47.10;;;;;;5148045;27;19923;-45
2022/07/18 07:15:23;;;;;;;;;;;20.60;48.10;;;;;;5142511;27;19923;-44
2022/07/18 07:17:49;;;;;;;;;;;21.50;47.00;;;;;;5144855;27;19927;-53
2022/07/18 07:20:17;;;;;;;;;;;20.80;48.00;;;;;;5127261;27;19941;-45
2022/07/18 07:22:46;;;;;;;;;;;20.30;48.70;;;;;;5142231;27;20014;-43
2022/07/18 07:25:12;;;;;;;;;;;20.00;49.00;;;;;;5128913;27;19976;-45
2022/07/18 07:27:38;;;;;;;;;;;19.80;49.20;;;;;;5122240;27;19923;-44
2022/07/18 07:30:04;;;;;;;;;;;20.00;48.60;;;;;;5123583;27;19927;-43
2022/07/18 07:32:39;;;;;;;;;;;20.00;48.20;;;;;;5147720;27;19923;-43
2022/07/18 07:35:06;;;;;;;;;;;20.00;48.10;;;;;;5142263;27;20335;-43
2022/07/18 07:37:33;;;;;;;;;;;19.90;48.40;;;;;;5142060;27;19953;-46
2022/07/18 07:39:58;;;;;;;;;;;20.00;48.30;;;;;;5147485;27;19922;-45
2022/07/18 07:42:25;;;;;;;;;;;20.20;48.90;;;;;;5142183;27;19991;-44
2022/07/18 07:44:50;;;;;;;;;;;21.10;49.70;;;;;;5144499;27;20021;-55
2022/07/18 07:47:16;;;;;;;;;;;21.80;48.50;;;;;;5143328;27;19950;-48
2022/07/18 07:49:42;;;;;;;;;;;20.60;49.80;;;;;;5141859;27;19923;-44
2022/07/18 07:52:08;;;;;;;;;;;20.30;50.10;;;;;;5128934;27;20047;-43
2022/07/18 07:54:34;;;;;;;;;;;20.00;49.70;;;;;;5142100;27;19930;-43
2022/07/18 07:57:00;;;;;;;;;;;20.30;48.50;;;;;;5141498;27;20455;-43
2022/07/18 07:59:26;;;;;;;;;;;20.00;48.80;;;;;;5147067;27;20053;-43
2022/07/18 08:01:52;;;;;;;;;;;20.00;48.50;;;;;;5141774;27;19930;-43
2022/07/18 08:04:17;;;;;;;;;;;19.90;48.70;;;;;;5141674;27;19971;-53
2022/07/18 08:06:43;;;;;;;;;;;19.80;48.70;;;;;;5145926;27;20382;-45
2022/07/18 08:09:09;;;;;;;;;;;20.10;48.00;;;;;;5141718;27;19939;-42
2022/07/18 08:11:35;;;;;;;;;;;19.80;48.20;;;;;;5147071;27;19934;-48
2022/07/18 08:14:00;;;;;;;;;;;19.80;48.40;;;;;;5141724;27;19976;-46
2022/07/18 08:16:26;;;;;;;;;;;19.80;48.70;;;;;;5122316;27;19934;-48
2022/07/18 08:18:52;;;;;;;;;;;20.80;49.90;;;;;;5147009;27;19971;-48
2022/07/18 08:21:18;;;;;;;;;;;21.70;48.70;;;;;;5140510;27;20389;-46
2022/07/18 08:23:45;;;;;;;;;;;21.30;48.50;;;;;;5140409;27;19931;-46
2022/07/18 08:26:10;;;;;;;;;;;20.70;48.60;;;;;;5146952;27;19922;-44
2022/07/18 08:28:36;;;;;;;;;;;20.30;48.40;;;;;;5141498;27;19967;-45
2022/07/18 08:31:02;;;;;;;;;;;20.10;48.20;;;;;;5146996;27;19923;-45
2022/07/18 08:33:28;;;;;;;;;;;19.90;48.20;;;;;;5140788;27;20386;-48
2022/07/18 08:35:53;;;;;;;;;;;19.80;48.00;;;;;;5141377;27;19923;-46
2022/07/18 08:38:19;;;;;;;;;;;20.60;50.10;;;;;;5145557;27;19926;-49
2022/07/18 08:40:46;;;;;;;;;;;21.60;48.40;;;;;;5139606;27;19934;-47
2022/07/18 08:43:12;;;;;;;;;;;21.40;47.90;;;;;;5140678;27;20185;-45
2022/07/18 08:45:38;;;;;;;;;;;20.80;48.40;;;;;;5128064;27;19926;-44
2022/07/18 08:48:04;;;;;;;;;;;20.30;48.50;;;;;;5141234;27;19927;-48
2022/07/18 08:50:29;;;;;;;;;;;20.30;48.00;;;;;;5146747;27;19931;-45
2022/07/18 08:52:56;;;;;;;;;;;20.30;47.50;;;;;;5140493;27;19923;-51
2022/07/18 08:55:22;;;;;;;;;;;20.10;47.50;;;;;;5140948;27;19923;-51
2022/07/18 08:57:47;;;;;;;;;;;20.30;49.60;;;;;;5145308;27;20408;-47
2022/07/18 09:00:13;;;;;;;;;;;21.30;48.70;;;;;;5139955;27;19927;-48
2022/07/18 09:02:39;;;;;;;;;;;21.70;47.40;;;;;;5140747;27;19923;-48
2022/07/18 09:05:05;;;;;;;;;;;20.80;48.10;;;;;;5146173;27;19930;-45
2022/07/18 09:07:32;;;;;;;;;;;20.50;48.10;;;;;;5140876;27;19927;-47
2022/07/18 09:09:58;;;;;;;;;;;20.20;48.10;;;;;;5145301;27;19983;-57
2022/07/18 09:12:27;;;;;;;;;;;20.10;47.80;;;;;;5141845;27;20119;-48
2022/07/18 09:14:53;;;;;;;;;;;20.00;47.70;;;;;;5140689;27;19923;-48
2022/07/18 09:17:25;;;;;;;;;;;20.00;47.40;;;;;;5125879;27;20275;-48
2022/07/18 09:20:03;;;;;;;;;;;20.70;49.50;;;;;;5140272;27;20081;-48
2022/07/18 09:22:30;;;;;;;;;;;21.80;47.60;;;;;;5140322;27;19935;-50
2022/07/18 09:25:12;;;;;;;;;;;21.30;47.40;;;;;;5146122;27;20482;-46
2022/07/18 09:27:38;;;;;;;;;;;20.70;48.00;;;;;;5140660;27;19923;-49
2022/07/18 09:30:18;;;;;;;;;;;20.60;47.50;;;;;;5140217;27;19945;-44
2022/07/18 09:32:45;;;;;;;;;;;20.30;47.50;;;;;;5146019;27;19931;-45
2022/07/18 09:35:12;;;;;;;;;;;20.20;47.30;;;;;;5139212;27;20370;-47
2022/07/18 09:37:39;;;;;;;;;;;20.00;47.30;;;;;;5116968;27;19924;-47
2022/07/18 09:40:15;;;;;;;;;;;19.80;47.60;;;;;;5145644;27;19960;-50
2022/07/18 09:42:41;;;;;;;;;;;20.50;49.30;;;;;;5140370;27;19923;-45
2022/07/18 09:45:07;;;;;;;;;;;21.70;47.40;;;;;;5140222;27;20152;-46
2022/07/18 09:47:45;;;;;;;;;;;21.40;46.80;;;;;;5145083;27;20014;-47
2022/07/18 09:50:18;;;;;;;;;;;20.70;47.90;;;;;;5125347;27;19927;-46
2022/07/18 09:52:44;;;;;;;;;;;20.30;47.90;;;;;;5121909;27;19980;-51
2022/07/18 09:55:10;;;;;;;;;;;20.20;47.40;;;;;;5146183;27;19927;-46
2022/07/18 09:57:37;;;;;;;;;;;20.20;47.20;;;;;;5143636;27;19923;-45
2022/07/18 10:00:03;;;;;;;;;;;19.90;47.30;;;;;;5149034;27;19923;-50
2022/07/18 10:02:29;;;;;;;;;;;19.80;47.40;;;;;;5143650;27;20154;-47
2022/07/18 10:04:54;;;;;;;;;;;19.80;48.00;;;;;;5142722;27;19923;-50
2022/07/18 10:07:20;;;;;;;;;;;20.80;48.30;;;;;;5148676;27;19938;-49
2022/07/18 10:09:46;;;;;;;;;;;21.80;46.30;;;;;;5143484;27;19923;-45
2022/07/18 10:12:15;;;;;;;;;;;21.50;46.30;;;;;;5142128;27;20174;-50
2022/07/18 10:14:40;;;;;;;;;;;20.60;47.50;;;;;;5129627;27;20429;-47
2022/07/18 10:17:06;;;;;;;;;;;20.30;47.60;;;;;;5143098;27;19957;-46
2022/07/18 10:19:33;;;;;;;;;;;20.30;47.00;;;;;;5128930;27;20493;-47
2022/07/18 10:21:59;;;;;;;;;;;20.20;46.80;;;;;;5143560;27;20064;-48
2022/07/18 10:24:25;;;;;;;;;;;20.00;46.90;;;;;;5142708;27;19927;-50
2022/07/18 10:27:09;;;;;;;;;;;20.00;46.70;;;;;;5148697;27;20302;-46
2022/07/18 10:29:35;;;;;;;;;;;20.30;47.90;;;;;;5141344;27;20110;-51
2022/07/18 10:32:02;;;;;;;;;;;21.50;46.30;;;;;;5141906;27;20399;-51
2022/07/18 10:34:29;;;;;;;;;;;21.70;45.40;;;;;;5129690;27;19927;-48
2022/07/18 10:36:56;;;;;;;;;;;20.80;46.70;;;;;;5124679;27;20374;-48
2022/07/18 10:39:35;;;;;;;;;;;20.50;46.60;;;;;;5142909;27;20215;-48
2022/07/18 10:42:01;;;;;;;;;;;20.30;46.60;;;;;;5148018;27;19930;-49
2022/07/18 10:44:29;;;;;;;;;;;20.30;46.20;;;;;;5142856;27;19923;-49
2022/07/18 10:47:12;;;;;;;;;;;20.10;46.50;;;;;;5142550;27;20289;-54
2022/07/18 10:49:47;;;;;;;;;;;20.00;46.40;;;;;;5146650;27;19923;-50
2022/07/18 10:52:24;;;;;;;;;;;20.10;47.30;;;;;;5142471;27;20002;-51
2022/07/18 10:55:02;;;;;;;;;;;21.30;46.30;;;;;;5142503;27;20398;-48
2022/07/18 10:57:35;;;;;;;;;;;22.00;44.10;;;;;;5147340;27;21362;-48
2022/07/18 11:00:11;;;;;;;;;;;21.00;45.50;;;;;;5141433;27;20025;-45
2022/07/18 11:02:38;;;;;;;;;;;20.60;46.00;;;;;;5142464;27;20486;-45
2022/07/18 11:05:23;;;;;;;;;;;20.30;46.10;;;;;;5129613;27;19923;-48
2022/07/18 11:07:58;;;;;;;;;;;20.30;46.10;;;;;;5140835;27;20362;-46
2022/07/18 11:10:44;;;;;;;;;;;20.10;46.00;;;;;;5142381;27;20220;-45
2022/07/18 11:13:25;;;;;;;;;;;20.30;45.40;;;;;;5147943;27;19927;-48
2022/07/18 11:15:56;;;;;;;;;;;20.70;46.70;;;;;;5142527;27;20399;-46
2022/07/18 11:18:22;;;;;;;;;;;21.90;44.20;;;;;;5142289;27;19923;-46
2022/07/18 11:20:48;;;;;;;;;;;21.40;44.80;;;;;;5128969;27;19930;-44
2022/07/18 11:23:15;;;;;;;;;;;20.50;46.30;;;;;;5142228;27;19934;-46
2022/07/18 11:25:41;;;;;;;;;;;20.50;45.80;;;;;;5122682;27;19927;-46
2022/07/18 11:28:08;;;;;;;;;;;20.30;46.00;;;;;;5147189;27;19929;-44
2022/07/18 11:30:34;;;;;;;;;;;20.40;45.50;;;;;;5138144;27;19927;-44
2022/07/18 11:33:00;;;;;;;;;;;20.30;45.40;;;;;;5147659;27;20041;-45
2022/07/18 11:35:25;;;;;;;;;;;20.00;45.70;;;;;;5141840;27;19927;-52
2022/07/18 11:37:52;;;;;;;;;;;20.00;45.50;;;;;;5123113;27;19927;-45
2022/07/18 11:40:17;;;;;;;;;;;20.30;46.60;;;;;;5147345;27;19923;-50
2022/07/18 11:42:43;;;;;;;;;;;21.40;44.80;;;;;;5141555;27;19969;-49
2022/07/18 11:45:10;;;;;;;;;;;21.80;43.70;;;;;;5140529;27;19923;-46
2022/07/18 11:47:39;;;;;;;;;;;21.00;45.10;;;;;;5146968;27;19923;-45
2022/07/18 11:50:05;;;;;;;;;;;20.30;46.00;;;;;;5123517;27;19988;-46
2022/07/18 11:52:32;;;;;;;;;;;20.20;45.90;;;;;;5147471;27;19934;-48
2022/07/18 11:55:00;;;;;;;;;;;20.00;46.00;;;;;;5124174;27;19950;-45
2022/07/18 11:57:27;;;;;;;;;;;20.20;45.60;;;;;;5141582;27;20484;-50
2022/07/18 11:59:53;;;;;;;;;;;20.20;45.40;;;;;;5128930;27;20429;-48
2022/07/18 12:02:19;;;;;;;;;;;20.10;45.60;;;;;;5140029;27;19938;-48
2022/07/18 12:04:44;;;;;;;;;;;20.70;46.40;;;;;;5122222;27;19934;-46
2022/07/18 12:07:13;;;;;;;;;;;21.80;44.40;;;;;;5146853;27;20290;-46
2022/07/18 12:09:39;;;;;;;;;;;21.50;44.20;;;;;;5141464;27;20351;-46
2022/07/18 12:12:09;;;;;;;;;;;20.80;45.50;;;;;;5141604;27;19927;-54
2022/07/18 12:14:34;;;;;;;;;;;20.50;45.80;;;;;;5146307;27;19949;-47
2022/07/18 12:17:00;;;;;;;;;;;20.40;45.70;;;;;;5141475;27;20371;-46
2022/07/18 12:19:36;;;;;;;;;;;20.30;45.90;;;;;;5146172;27;19927;-46
2022/07/18 12:22:08;;;;;;;;;;;20.20;45.70;;;;;;5140272;27;20667;-47
2022/07/18 12:24:34;;;;;;;;;;;20.10;45.90;;;;;;5141047;27;19979;-50
2022/07/18 12:27:09;;;;;;;;;;;20.50;46.50;;;;;;5146819;27;19927;-49
2022/07/18 12:29:54;;;;;;;;;;;21.70;44.40;;;;;;5141157;27;19927;-48
2022/07/18 12:32:26;;;;;;;;;;;21.50;44.20;;;;;;5140696;27;19923;-47
2022/07/18 12:34:55;;;;;;;;;;;20.70;45.40;;;;;;5146361;27;19923;-46
2022/07/18 12:37:25;;;;;;;;;;;20.70;45.50;;;;;;5141044;27;20022;-48
2022/07/18 12:39:57;;;;;;;;;;;20.50;45.50;;;;;;5139613;27;19930;-50
2022/07/18 12:42:34;;;;;;;;;;;20.30;45.70;;;;;;5146359;27;19937;-49
2022/07/18 12:45:00;;;;;;;;;;;20.10;45.90;;;;;;5141192;27;19991;-47
2022/07/18 12:47:25;;;;;;;;;;;20.10;45.80;;;;;;5141105;27;19943;-50
2022/07/18 12:49:51;;;;;;;;;;;20.20;45.70;;;;;;5146432;27;19935;-48
2022/07/18 12:52:18;;;;;;;;;;;20.60;46.80;;;;;;5140863;27;19965;-46
2022/07/18 12:54:44;;;;;;;;;;;21.60;44.80;;;;;;5141011;27;19923;-46
2022/07/18 12:57:10;;;;;;;;;;;21.80;44.10;;;;;;5144816;27;20050;-48
2022/07/18 12:59:35;;;;;;;;;;;20.90;45.50;;;;;;5139910;27;19934;-45
2022/07/18 13:02:02;;;;;;;;;;;20.60;46.10;;;;;;5146004;27;19931;-46
2022/07/18 13:04:27;;;;;;;;;;;20.40;45.70;;;;;;5140540;27;19933;-48
2022/07/18 13:06:53;;;;;;;;;;;20.30;45.90;;;;;;5122151;27;19931;-49
2022/07/18 13:09:19;;;;;;;;;;;20.30;45.50;;;;;;5145362;27;19941;-48
2022/07/18 13:11:47;;;;;;;;;;;20.20;45.70;;;;;;5140717;27;19923;-48
2022/07/18 13:14:16;;;;;;;;;;;20.10;46.00;;;;;;5140576;27;20435;-46
2022/07/18 13:16:45;;;;;;;;;;;20.10;45.60;;;;;;5144498;27;20038;-49
2022/07/18 13:19:11;;;;;;;;;;;20.90;46.10;;;;;;5140063;27;20358;-46
2022/07/18 13:21:37;;;;;;;;;;;22.00;44.00;;;;;;5144474;27;19939;-55
2022/07/18 13:24:03;;;;;;;;;;;21.30;44.80;;;;;;5144266;27;20076;-52
2022/07/18 13:26:29;;;;;;;;;;;20.90;45.60;;;;;;5144071;27;20007;-50
2022/07/18 13:28:54;;;;;;;;;;;20.70;45.70;;;;;;5149308;27;19931;-49
2022/07/18 13:31:20;;;;;;;;;;;20.30;46.20;;;;;;5143982;27;20378;-51
2022/07/18 13:33:50;;;;;;;;;;;20.30;45.80;;;;;;5143258;27;20379;-52
2022/07/18 13:36:16;;;;;;;;;;;20.30;45.60;;;;;;5148680;27;20303;-46
2022/07/18 13:38:42;;;;;;;;;;;20.20;45.60;;;;;;5143935;27;20442;-50
2022/07/18 13:41:08;;;;;;;;;;;20.10;46.40;;;;;;5124461;27;20018;-53
2022/07/18 13:43:36;;;;;;;;;;;21.00;46.20;;;;;;5149483;27;19923;-48
2022/07/18 13:46:02;;;;;;;;;;;22.00;44.00;;;;;;5143543;27;19930;-48
2022/07/18 13:48:28;;;;;;;;;;;21.10;45.60;;;;;;5149279;27;19927;-47
2022/07/18 13:50:54;;;;;;;;;;;20.80;45.90;;;;;;5143689;27;19930;-47
2022/07/18 13:53:19;;;;;;;;;;;20.50;46.30;;;;;;5142230;27;20000;-48
2022/07/18 13:55:45;;;;;;;;;;;20.20;46.70;;;;;;5148733;27;20389;-44
2022/07/18 13:58:14;;;;;;;;;;;20.40;46.10;;;;;;5143700;27;19923;-45
2022/07/18 14:00:39;;;;;;;;;;;20.30;45.90;;;;;;5143677;27;19923;-51
2022/07/18 14:03:06;;;;;;;;;;;20.10;46.30;;;;;;5149093;27;19923;-49
2022/07/18 14:05:32;;;;;;;;;;;20.00;46.30;;;;;;5143394;27;20022;-46
2022/07/18 14:07:57;;;;;;;;;;;19.80;46.60;;;;;;5148905;27;20460;-44
2022/07/18 14:10:23;;;;;;;;;;;20.00;46.20;;;;;;5142553;27;19923;-44
2022/07/18 14:12:49;;;;;;;;;;;20.00;45.80;;;;;;5142522;27;20366;-47
2022/07/18 14:15:15;;;;;;;;;;;20.10;46.70;;;;;;5148633;27;19927;-47
2022/07/18 14:17:41;;;;;;;;;;;21.10;46.40;;;;;;5143447;27;20011;-46